PWSweather.com
Personal Weather Stations
Station Observations
WD4JKH
Forsyth, GA 31029

Forsyth, GA 31029

Lat: 33.033225, Lon: -83.927995

Elevation: 709

Station Type: Davis Vantage VUE

High Low Average
Temperature 68.6°F20.3°C 58.9°F14.9°C 62.7°F17.1°C
Dew Point 66.8°F19.3°C 57.8°F14.3°C 61.6°F16.4°C
Winds 10.4 mph 16.7 kmh Calm Calm 3.0 mph SSW4.8 kmh SSW
Wind Gusts 22.0 mph35.4 kmh 1.0 mph1.6 kmh 10.0 mph16.1 kmh
Humidity 98% 85% 96%
Pressure 30.13 in1020.3 mb 29.98 in1015.2 mb -
Precipitation 1.30 in33.0 mm - -
Hour Temp Dew Point Humidity Winds Wind Gusts Pressure Precip Precip Rate Daily Precip Total
12:03 AM 61.6°F16.4°C 61.0°F16.1°C 98% 2.5 mph SE4.0 kmh SE 6.0 mph9.7 kmh 30.08 in1018.6 mb 0.00 in0.0 mm 0.00 in0.0 mm 0.00 in0.0 mm
12:08 AM 61.9°F16.6°C 61.3°F16.3°C 98% 2.7 mph SE4.3 kmh SE 7.0 mph11.3 kmh 30.08 in1018.6 mb 0.00 in0.0 mm 0.00 in0.0 mm 0.00 in0.0 mm
12:13 AM 62.2°F16.8°C 61.6°F16.4°C 98% 2.8 mph SSE4.5 kmh SSE 8.0 mph12.9 kmh 30.07 in1018.3 mb 0.00 in0.0 mm 0.00 in0.0 mm 0.00 in0.0 mm
12:18 AM 62.5°F16.9°C 61.9°F16.6°C 98% 4.5 mph SE7.2 kmh SE 9.0 mph14.5 kmh 30.07 in1018.3 mb 0.00 in0.0 mm 0.00 in0.0 mm 0.00 in0.0 mm
12:23 AM 62.8°F17.1°C 62.2°F16.8°C 98% 4.0 mph SE6.4 kmh SE 11.0 mph17.7 kmh 30.07 in1018.3 mb 0.00 in0.0 mm 0.00 in0.0 mm 0.00 in0.0 mm
12:28 AM 63.0°F17.2°C 62.4°F16.9°C 98% 5.6 mph SE9.0 kmh SE 13.0 mph20.9 kmh 30.06 in1017.9 mb 0.00 in0.0 mm 0.00 in0.0 mm 0.00 in0.0 mm
12:33 AM 63.3°F17.4°C 62.7°F17.1°C 98% 4.4 mph SSE7.1 kmh SSE 18.0 mph29.0 kmh 30.06 in1017.9 mb 0.00 in0.0 mm 0.00 in0.0 mm 0.00 in0.0 mm
12:38 AM 63.4°F17.4°C 62.8°F17.1°C 98% 7.4 mph SE11.9 kmh SE 18.0 mph29.0 kmh 30.05 in1017.6 mb 0.00 in0.0 mm 0.00 in0.0 mm 0.00 in0.0 mm
12:43 AM 63.6°F17.6°C 63.0°F17.2°C 98% 6.3 mph SE10.1 kmh SE 18.0 mph29.0 kmh 30.05 in1017.6 mb 0.00 in0.0 mm 0.00 in0.0 mm 0.00 in0.0 mm
12:48 AM 63.8°F17.7°C 63.2°F17.3°C 98% 8.7 mph SE14.0 kmh SE 18.0 mph29.0 kmh 30.05 in1017.6 mb 0.00 in0.0 mm 0.00 in0.0 mm 0.00 in0.0 mm
12:53 AM 63.9°F17.7°C 63.3°F17.4°C 98% 7.7 mph SE12.4 kmh SE 17.0 mph27.4 kmh 30.05 in1017.6 mb 0.00 in0.0 mm 0.00 in0.0 mm 0.00 in0.0 mm
12:58 AM 64.0°F17.8°C 63.4°F17.4°C 98% 5.6 mph SE9.0 kmh SE 17.0 mph27.4 kmh 30.05 in1017.6 mb 0.00 in0.0 mm 0.00 in0.0 mm 0.00 in0.0 mm
01:03 AM 64.1°F17.8°C 63.5°F17.5°C 98% 7.0 mph SE11.3 kmh SE 17.0 mph27.4 kmh 30.05 in1017.6 mb 0.00 in0.0 mm 0.00 in0.0 mm 0.00 in0.0 mm
01:08 AM 64.2°F17.9°C 63.6°F17.6°C 98% 4.1 mph SSE6.6 kmh SSE 16.0 mph25.7 kmh 30.04 in1017.3 mb 0.00 in0.0 mm 0.00 in0.0 mm 0.00 in0.0 mm
01:13 AM 64.3°F17.9°C 63.7°F17.6°C 98% 3.6 mph S5.8 kmh S 16.0 mph25.7 kmh 30.04 in1017.3 mb 0.00 in0.0 mm 0.00 in0.0 mm 0.00 in0.0 mm
01:18 AM 64.3°F17.9°C 63.7°F17.6°C 98% 5.3 mph SSE8.5 kmh SSE 16.0 mph25.7 kmh 30.04 in1017.3 mb 0.00 in0.0 mm 0.00 in0.0 mm 0.00 in0.0 mm
01:23 AM 64.4°F18.0°C 63.8°F17.7°C 98% 6.3 mph SSE10.1 kmh SSE 16.0 mph25.7 kmh 30.04 in1017.3 mb 0.00 in0.0 mm 0.00 in0.0 mm 0.00 in0.0 mm
01:28 AM 64.5°F18.1°C 63.9°F17.7°C 98% 5.0 mph S8.0 kmh S 16.0 mph25.7 kmh 30.04 in1017.3 mb 0.00 in0.0 mm 0.00 in0.0 mm 0.00 in0.0 mm
01:33 AM 64.6°F18.1°C 64.0°F17.8°C 98% 5.0 mph S8.0 kmh S 16.0 mph25.7 kmh 30.04 in1017.3 mb 0.00 in0.0 mm 0.00 in0.0 mm 0.00 in0.0 mm
01:38 AM 64.6°F18.1°C 64.0°F17.8°C 98% 5.4 mph SSE8.7 kmh SSE 16.0 mph25.7 kmh 30.04 in1017.3 mb 0.00 in0.0 mm 0.00 in0.0 mm 0.00 in0.0 mm
01:43 AM 64.7°F18.2°C 64.1°F17.8°C 98% 4.0 mph S6.4 kmh S 14.0 mph22.5 kmh 30.04 in1017.3 mb 0.00 in0.0 mm 0.00 in0.0 mm 0.00 in0.0 mm
01:48 AM 64.9°F18.3°C 64.3°F17.9°C 98% 6.3 mph S10.1 kmh S 18.0 mph29.0 kmh 30.05 in1017.6 mb 0.00 in0.0 mm 0.00 in0.0 mm 0.00 in0.0 mm
01:53 AM 65.0°F18.3°C 64.4°F18.0°C 98% 6.4 mph S10.3 kmh S 18.0 mph29.0 kmh 30.05 in1017.6 mb 0.00 in0.0 mm 0.00 in0.0 mm 0.00 in0.0 mm
01:58 AM 65.1°F18.4°C 64.2°F17.9°C 97% 3.5 mph S5.6 kmh S 18.0 mph29.0 kmh 30.05 in1017.6 mb 0.00 in0.0 mm 0.00 in0.0 mm 0.00 in0.0 mm
02:03 AM 65.2°F18.4°C 64.3°F17.9°C 97% 6.0 mph S9.7 kmh S 18.0 mph29.0 kmh 30.04 in1017.3 mb 0.00 in0.0 mm 0.00 in0.0 mm 0.00 in0.0 mm
02:08 AM 65.4°F18.6°C 64.2°F17.9°C 96% 3.8 mph S6.1 kmh S 14.0 mph22.5 kmh 30.04 in1017.3 mb 0.00 in0.0 mm 0.00 in0.0 mm 0.00 in0.0 mm
02:13 AM 65.5°F18.6°C 64.3°F17.9°C 96% 5.3 mph S8.5 kmh S 15.0 mph24.1 kmh 30.04 in1017.3 mb 0.00 in0.0 mm 0.00 in0.0 mm 0.00 in0.0 mm
02:18 AM 65.6°F18.7°C 64.4°F18.0°C 96% 4.7 mph SSE7.6 kmh SSE 15.0 mph24.1 kmh 30.04 in1017.3 mb 0.00 in0.0 mm 0.00 in0.0 mm 0.00 in0.0 mm
02:23 AM 65.6°F18.7°C 64.1°F17.8°C 95% 4.9 mph S7.9 kmh S 15.0 mph24.1 kmh 30.04 in1017.3 mb 0.01 in0.3 mm 0.12 in3.0 mm 0.01 in0.3 mm
02:28 AM 65.6°F18.7°C 64.4°F18.0°C 96% 4.3 mph S6.9 kmh S 15.0 mph24.1 kmh 30.04 in1017.3 mb 0.01 in0.3 mm 0.00 in0.0 mm 0.01 in0.3 mm
02:33 AM 65.6°F18.7°C 64.4°F18.0°C 96% 5.1 mph S8.2 kmh S 15.0 mph24.1 kmh 30.04 in1017.3 mb 0.03 in0.8 mm 0.24 in6.1 mm 0.03 in0.8 mm
02:38 AM 65.5°F18.6°C 64.3°F17.9°C 96% 2.5 mph S4.0 kmh S 12.0 mph19.3 kmh 30.04 in1017.3 mb 0.06 in1.5 mm 0.36 in9.1 mm 0.06 in1.5 mm
02:43 AM 65.4°F18.6°C 64.2°F17.9°C 96% 4.0 mph S6.4 kmh S 12.0 mph19.3 kmh 30.04 in1017.3 mb 0.07 in1.8 mm 0.12 in3.0 mm 0.07 in1.8 mm
02:48 AM 65.4°F18.6°C 64.2°F17.9°C 96% 2.4 mph S3.9 kmh S 12.0 mph19.3 kmh 30.04 in1017.3 mb 0.08 in2.0 mm 0.12 in3.0 mm 0.08 in2.0 mm
02:53 AM 65.4°F18.6°C 64.2°F17.9°C 96% 4.4 mph S7.1 kmh S 13.0 mph20.9 kmh 30.04 in1017.3 mb 0.08 in2.0 mm 0.00 in0.0 mm 0.08 in2.0 mm
02:58 AM 65.4°F18.6°C 64.2°F17.9°C 96% 2.2 mph S3.5 kmh S 13.0 mph20.9 kmh 30.04 in1017.3 mb 0.09 in2.3 mm 0.12 in3.0 mm 0.09 in2.3 mm
03:03 AM 65.4°F18.6°C 64.2°F17.9°C 96% 4.7 mph S7.6 kmh S 13.0 mph20.9 kmh 30.04 in1017.3 mb 0.09 in2.3 mm 0.00 in0.0 mm 0.09 in2.3 mm
03:08 AM 65.4°F18.6°C 64.2°F17.9°C 96% 4.0 mph S6.4 kmh S 13.0 mph20.9 kmh 30.04 in1017.3 mb 0.09 in2.3 mm 0.00 in0.0 mm 0.09 in2.3 mm
03:13 AM 65.4°F18.6°C 64.2°F17.9°C 96% 2.6 mph S4.2 kmh S 13.0 mph20.9 kmh 30.04 in1017.3 mb 0.09 in2.3 mm 0.00 in0.0 mm 0.09 in2.3 mm
03:18 AM 65.5°F18.6°C 64.3°F17.9°C 96% 3.9 mph S6.3 kmh S 13.0 mph20.9 kmh 30.04 in1017.3 mb 0.09 in2.3 mm 0.00 in0.0 mm 0.09 in2.3 mm
03:22 AM 65.5°F18.6°C 64.3°F17.9°C 96% 3.7 mph SSW6.0 kmh SSW 10.0 mph16.1 kmh 30.04 in1017.3 mb 0.09 in2.3 mm 0.00 in0.0 mm 0.09 in2.3 mm
03:27 AM 65.5°F18.6°C 64.3°F17.9°C 96% 5.5 mph S8.9 kmh S 10.0 mph16.1 kmh 30.04 in1017.3 mb 0.08 in2.0 mm 0.00 in0.0 mm 0.09 in2.3 mm
03:32 AM 65.6°F18.7°C 64.4°F18.0°C 96% 3.5 mph S5.6 kmh S 10.0 mph16.1 kmh 30.03 in1016.9 mb 0.08 in2.0 mm 0.00 in0.0 mm 0.10 in2.5 mm
03:37 AM 65.6°F18.7°C 64.4°F18.0°C 96% 3.6 mph SSE5.8 kmh SSE 10.0 mph16.1 kmh 30.03 in1016.9 mb 0.06 in1.5 mm 0.00 in0.0 mm 0.11 in2.8 mm
03:42 AM 65.6°F18.7°C 64.4°F18.0°C 96% 2.7 mph S4.3 kmh S 9.0 mph14.5 kmh 30.03 in1016.9 mb 0.04 in1.0 mm 0.00 in0.0 mm 0.11 in2.8 mm
03:47 AM 65.6°F18.7°C 64.4°F18.0°C 96% 4.3 mph S6.9 kmh S 10.0 mph16.1 kmh 30.03 in1016.9 mb 0.03 in0.8 mm 0.00 in0.0 mm 0.11 in2.8 mm
03:52 AM 65.7°F18.7°C 64.5°F18.1°C 96% 3.2 mph S5.1 kmh S 10.0 mph16.1 kmh 30.03 in1016.9 mb 0.03 in0.8 mm 0.00 in0.0 mm 0.11 in2.8 mm
03:57 AM 65.6°F18.7°C 64.4°F18.0°C 96% 2.0 mph S3.2 kmh S 10.0 mph16.1 kmh 30.03 in1016.9 mb 0.02 in0.5 mm 0.00 in0.0 mm 0.11 in2.8 mm
04:02 AM 65.7°F18.7°C 64.5°F18.1°C 96% 3.3 mph S5.3 kmh S 10.0 mph16.1 kmh 30.03 in1016.9 mb 0.02 in0.5 mm 0.00 in0.0 mm 0.11 in2.8 mm
04:07 AM 65.7°F18.7°C 64.5°F18.1°C 96% 4.3 mph S6.9 kmh S 10.0 mph16.1 kmh 30.02 in1016.6 mb 0.02 in0.5 mm 0.00 in0.0 mm 0.11 in2.8 mm
04:12 AM 65.7°F18.7°C 64.5°F18.1°C 96% 3.2 mph S5.1 kmh S 10.0 mph16.1 kmh 30.02 in1016.6 mb 0.02 in0.5 mm 0.00 in0.0 mm 0.11 in2.8 mm
04:17 AM 65.7°F18.7°C 64.5°F18.1°C 96% 4.8 mph S7.7 kmh S 11.0 mph17.7 kmh 30.02 in1016.6 mb 0.02 in0.5 mm 0.00 in0.0 mm 0.11 in2.8 mm
04:22 AM 65.8°F18.8°C 64.6°F18.1°C 96% 4.9 mph SSE7.9 kmh SSE 11.0 mph17.7 kmh 30.01 in1016.3 mb 0.02 in0.5 mm 0.00 in0.0 mm 0.11 in2.8 mm
04:27 AM 65.8°F18.8°C 64.6°F18.1°C 96% 2.9 mph S4.7 kmh S 11.0 mph17.7 kmh 30.01 in1016.3 mb 0.02 in0.5 mm 0.00 in0.0 mm 0.11 in2.8 mm
04:32 AM 65.8°F18.8°C 64.6°F18.1°C 96% 5.4 mph SSE8.7 kmh SSE 11.0 mph17.7 kmh 30.01 in1016.3 mb 0.01 in0.3 mm 0.00 in0.0 mm 0.11 in2.8 mm
04:37 AM 66.0°F18.9°C 64.8°F18.2°C 96% 2.8 mph S4.5 kmh S 18.0 mph29.0 kmh 30.01 in1016.3 mb 0.00 in0.0 mm 0.00 in0.0 mm 0.11 in2.8 mm
04:42 AM 66.0°F18.9°C 64.8°F18.2°C 96% 4.9 mph SSE7.9 kmh SSE 18.0 mph29.0 kmh 30.01 in1016.3 mb 0.00 in0.0 mm 0.00 in0.0 mm 0.11 in2.8 mm
04:47 AM 66.0°F18.9°C 64.8°F18.2°C 96% 4.5 mph S7.2 kmh S 18.0 mph29.0 kmh 30.01 in1016.3 mb 0.00 in0.0 mm 0.00 in0.0 mm 0.11 in2.8 mm
04:52 AM 66.0°F18.9°C 64.8°F18.2°C 96% 5.2 mph S8.4 kmh S 18.0 mph29.0 kmh 30.01 in1016.3 mb 0.00 in0.0 mm 0.00 in0.0 mm 0.11 in2.8 mm
04:57 AM 66.1°F18.9°C 64.6°F18.1°C 95% 4.7 mph S7.6 kmh S 13.0 mph20.9 kmh 30.01 in1016.3 mb 0.00 in0.0 mm 0.00 in0.0 mm 0.11 in2.8 mm
05:02 AM 66.1°F18.9°C 64.6°F18.1°C 95% 4.0 mph SSE6.4 kmh SSE 13.0 mph20.9 kmh 30.00 in1015.9 mb 0.00 in0.0 mm 0.00 in0.0 mm 0.11 in2.8 mm
05:07 AM 66.1°F18.9°C 64.6°F18.1°C 95% 3.2 mph S5.1 kmh S 13.0 mph20.9 kmh 30.00 in1015.9 mb 0.00 in0.0 mm 0.00 in0.0 mm 0.11 in2.8 mm
05:12 AM 66.0°F18.9°C 64.5°F18.1°C 95% 2.3 mph S3.7 kmh S 12.0 mph19.3 kmh 30.00 in1015.9 mb 0.00 in0.0 mm 0.00 in0.0 mm 0.11 in2.8 mm
05:17 AM 66.1°F18.9°C 64.6°F18.1°C 95% 4.5 mph S7.2 kmh S 14.0 mph22.5 kmh 30.00 in1015.9 mb 0.00 in0.0 mm 0.00 in0.0 mm 0.11 in2.8 mm
05:22 AM 66.1°F18.9°C 64.6°F18.1°C 95% 4.6 mph S7.4 kmh S 14.0 mph22.5 kmh 30.00 in1015.9 mb 0.00 in0.0 mm 0.00 in0.0 mm 0.11 in2.8 mm
05:27 AM 66.2°F19.0°C 64.7°F18.2°C 95% 4.4 mph S7.1 kmh S 14.0 mph22.5 kmh 30.00 in1015.9 mb 0.00 in0.0 mm 0.00 in0.0 mm 0.11 in2.8 mm
05:32 AM 66.2°F19.0°C 64.7°F18.2°C 95% 6.5 mph S10.5 kmh S 14.0 mph22.5 kmh 30.00 in1015.9 mb 0.00 in0.0 mm 0.00 in0.0 mm 0.11 in2.8 mm
05:37 AM 66.3°F19.1°C 64.8°F18.2°C 95% 4.5 mph S7.2 kmh S 13.0 mph20.9 kmh 30.00 in1015.9 mb 0.00 in0.0 mm 0.00 in0.0 mm 0.11 in2.8 mm
05:42 AM 66.3°F19.1°C 64.8°F18.2°C 95% 4.3 mph S6.9 kmh S 13.0 mph20.9 kmh 30.00 in1015.9 mb 0.00 in0.0 mm 0.00 in0.0 mm 0.11 in2.8 mm
05:47 AM 66.3°F19.1°C 64.8°F18.2°C 95% 4.5 mph S7.2 kmh S 13.0 mph20.9 kmh 30.00 in1015.9 mb 0.00 in0.0 mm 0.00 in0.0 mm 0.11 in2.8 mm
05:52 AM 66.3°F19.1°C 64.8°F18.2°C 95% 5.2 mph S8.4 kmh S 15.0 mph24.1 kmh 30.00 in1015.9 mb 0.00 in0.0 mm 0.00 in0.0 mm 0.11 in2.8 mm
05:57 AM 66.3°F19.1°C 64.8°F18.2°C 95% 3.4 mph S5.5 kmh S 15.0 mph24.1 kmh 30.00 in1015.9 mb 0.00 in0.0 mm 0.00 in0.0 mm 0.11 in2.8 mm
06:02 AM 66.4°F19.1°C 64.9°F18.3°C 95% 5.4 mph S8.7 kmh S 15.0 mph24.1 kmh 29.99 in1015.6 mb 0.00 in0.0 mm 0.00 in0.0 mm 0.11 in2.8 mm
06:07 AM 66.5°F19.2°C 65.0°F18.3°C 95% 4.2 mph S6.8 kmh S 15.0 mph24.1 kmh 29.99 in1015.6 mb 0.00 in0.0 mm 0.00 in0.0 mm 0.11 in2.8 mm
06:12 AM 66.5°F19.2°C 65.0°F18.3°C 95% 6.1 mph SSW9.8 kmh SSW 15.0 mph24.1 kmh 30.00 in1015.9 mb 0.00 in0.0 mm 0.00 in0.0 mm 0.11 in2.8 mm
06:17 AM 66.6°F19.2°C 65.1°F18.4°C 95% 5.6 mph S9.0 kmh S 15.0 mph24.1 kmh 30.00 in1015.9 mb 0.00 in0.0 mm 0.00 in0.0 mm 0.11 in2.8 mm
06:22 AM 66.7°F19.3°C 65.2°F18.4°C 95% 6.3 mph S10.1 kmh S 15.0 mph24.1 kmh 30.00 in1015.9 mb 0.00 in0.0 mm 0.00 in0.0 mm 0.11 in2.8 mm
06:27 AM 66.7°F19.3°C 64.9°F18.3°C 94% 6.0 mph S9.7 kmh S 15.0 mph24.1 kmh 30.00 in1015.9 mb 0.00 in0.0 mm 0.00 in0.0 mm 0.11 in2.8 mm
06:32 AM 66.8°F19.3°C 65.0°F18.3°C 94% 6.3 mph S10.1 kmh S 14.0 mph22.5 kmh 30.00 in1015.9 mb 0.00 in0.0 mm 0.00 in0.0 mm 0.11 in2.8 mm
06:37 AM 66.8°F19.3°C 65.0°F18.3°C 94% 4.8 mph S7.7 kmh S 14.0 mph22.5 kmh 30.00 in1015.9 mb 0.00 in0.0 mm 0.00 in0.0 mm 0.11 in2.8 mm
06:42 AM 66.9°F19.4°C 65.1°F18.4°C 94% 3.5 mph S5.6 kmh S 14.0 mph22.5 kmh 30.00 in1015.9 mb 0.00 in0.0 mm 0.00 in0.0 mm 0.11 in2.8 mm
06:47 AM 66.9°F19.4°C 65.1°F18.4°C 94% 7.8 mph S12.6 kmh S 19.0 mph30.6 kmh 30.00 in1015.9 mb 0.00 in0.0 mm 0.00 in0.0 mm 0.11 in2.8 mm
06:53 AM 67.1°F19.5°C 65.3°F18.5°C 94% 6.0 mph S9.7 kmh S 19.0 mph30.6 kmh 30.00 in1015.9 mb 0.00 in0.0 mm 0.00 in0.0 mm 0.11 in2.8 mm
06:58 AM 67.2°F19.6°C 65.4°F18.6°C 94% 5.0 mph SSW8.0 kmh SSW 19.0 mph30.6 kmh 30.01 in1016.3 mb 0.00 in0.0 mm 0.00 in0.0 mm 0.11 in2.8 mm
07:02 AM 67.2°F19.6°C 65.4°F18.6°C 94% 8.5 mph SSW13.7 kmh SSW 21.0 mph33.8 kmh 30.00 in1015.9 mb 0.00 in0.0 mm 0.00 in0.0 mm 0.11 in2.8 mm
07:07 AM 67.3°F19.6°C 65.5°F18.6°C 94% 6.6 mph SSW10.6 kmh SSW 21.0 mph33.8 kmh 30.00 in1015.9 mb 0.00 in0.0 mm 0.00 in0.0 mm 0.11 in2.8 mm
07:12 AM 67.3°F19.6°C 65.5°F18.6°C 94% 4.1 mph S6.6 kmh S 21.0 mph33.8 kmh 30.00 in1015.9 mb 0.00 in0.0 mm 0.00 in0.0 mm 0.11 in2.8 mm
07:17 AM 67.3°F19.6°C 65.5°F18.6°C 94% 5.7 mph S9.2 kmh S 21.0 mph33.8 kmh 30.01 in1016.3 mb 0.00 in0.0 mm 0.00 in0.0 mm 0.11 in2.8 mm
07:23 AM 67.4°F19.7°C 65.3°F18.5°C 93% 4.5 mph SSW7.2 kmh SSW 17.0 mph27.4 kmh 30.01 in1016.3 mb 0.00 in0.0 mm 0.00 in0.0 mm 0.11 in2.8 mm
07:28 AM 67.3°F19.6°C 65.5°F18.6°C 94% 6.0 mph SSW9.7 kmh SSW 16.0 mph25.7 kmh 30.01 in1016.3 mb 0.00 in0.0 mm 0.00 in0.0 mm 0.11 in2.8 mm
07:33 AM 67.3°F19.6°C 65.5°F18.6°C 94% 5.8 mph S9.3 kmh S 16.0 mph25.7 kmh 30.01 in1016.3 mb 0.00 in0.0 mm 0.00 in0.0 mm 0.11 in2.8 mm
07:38 AM 67.3°F19.6°C 65.5°F18.6°C 94% 5.9 mph S9.5 kmh S 15.0 mph24.1 kmh 30.01 in1016.3 mb 0.00 in0.0 mm 0.00 in0.0 mm 0.11 in2.8 mm
07:43 AM 67.3°F19.6°C 65.5°F18.6°C 94% 7.2 mph SSW11.6 kmh SSW 15.0 mph24.1 kmh 30.01 in1016.3 mb 0.00 in0.0 mm 0.00 in0.0 mm 0.11 in2.8 mm
07:48 AM 67.4°F19.7°C 65.3°F18.5°C 93% 4.1 mph SSW6.6 kmh SSW 15.0 mph24.1 kmh 30.01 in1016.3 mb 0.00 in0.0 mm 0.00 in0.0 mm 0.11 in2.8 mm
07:53 AM 67.5°F19.7°C 65.4°F18.6°C 93% 5.1 mph SSW8.2 kmh SSW 15.0 mph24.1 kmh 30.02 in1016.6 mb 0.00 in0.0 mm 0.00 in0.0 mm 0.11 in2.8 mm
07:58 AM 67.6°F19.8°C 65.5°F18.6°C 93% 4.1 mph S6.6 kmh S 15.0 mph24.1 kmh 30.01 in1016.3 mb 0.00 in0.0 mm 0.00 in0.0 mm 0.11 in2.8 mm
08:03 AM 67.6°F19.8°C 65.5°F18.6°C 93% 4.6 mph S7.4 kmh S 15.0 mph24.1 kmh 30.01 in1016.3 mb 0.00 in0.0 mm 0.00 in0.0 mm 0.11 in2.8 mm
08:08 AM 67.7°F19.8°C 65.6°F18.7°C 93% 3.7 mph S6.0 kmh S 15.0 mph24.1 kmh 30.02 in1016.6 mb 0.00 in0.0 mm 0.00 in0.0 mm 0.11 in2.8 mm
08:13 AM 67.7°F19.8°C 65.6°F18.7°C 93% 5.2 mph SSW8.4 kmh SSW 15.0 mph24.1 kmh 30.02 in1016.6 mb 0.00 in0.0 mm 0.00 in0.0 mm 0.11 in2.8 mm
08:18 AM 67.8°F19.9°C 65.7°F18.7°C 93% 6.3 mph SSW10.1 kmh SSW 13.0 mph20.9 kmh 30.02 in1016.6 mb 0.00 in0.0 mm 0.00 in0.0 mm 0.11 in2.8 mm
08:23 AM 67.8°F19.9°C 65.7°F18.7°C 93% 5.5 mph SSW8.9 kmh SSW 13.0 mph20.9 kmh 30.02 in1016.6 mb 0.00 in0.0 mm 0.00 in0.0 mm 0.11 in2.8 mm
08:28 AM 67.9°F19.9°C 65.8°F18.8°C 93% 5.8 mph SSW9.3 kmh SSW 14.0 mph22.5 kmh 30.03 in1016.9 mb 0.00 in0.0 mm 0.00 in0.0 mm 0.11 in2.8 mm
08:33 AM 68.0°F20.0°C 65.6°F18.7°C 92% 6.7 mph SW10.8 kmh SW 14.0 mph22.5 kmh 30.03 in1016.9 mb 0.00 in0.0 mm 0.00 in0.0 mm 0.11 in2.8 mm
08:38 AM 68.0°F20.0°C 65.6°F18.7°C 92% 4.0 mph SSW6.4 kmh SSW 14.0 mph22.5 kmh 30.03 in1016.9 mb 0.00 in0.0 mm 0.00 in0.0 mm 0.11 in2.8 mm
08:43 AM 68.1°F20.1°C 65.7°F18.7°C 92% 5.1 mph SW8.2 kmh SW 14.0 mph22.5 kmh 30.03 in1016.9 mb 0.00 in0.0 mm 0.00 in0.0 mm 0.11 in2.8 mm
08:48 AM 68.1°F20.1°C 65.7°F18.7°C 92% 4.5 mph SSW7.2 kmh SSW 13.0 mph20.9 kmh 30.03 in1016.9 mb 0.00 in0.0 mm 0.00 in0.0 mm 0.11 in2.8 mm
08:53 AM 68.1°F20.1°C 65.7°F18.7°C 92% 4.2 mph SSW6.8 kmh SSW 13.0 mph20.9 kmh 30.03 in1016.9 mb 0.00 in0.0 mm 0.00 in0.0 mm 0.11 in2.8 mm
08:58 AM 68.1°F20.1°C 65.7°F18.7°C 92% 6.0 mph SSW9.7 kmh SSW 13.0 mph20.9 kmh 30.03 in1016.9 mb 0.00 in0.0 mm 0.00 in0.0 mm 0.11 in2.8 mm
09:03 AM 68.1°F20.1°C 65.7°F18.7°C 92% 4.4 mph SSW7.1 kmh SSW 13.0 mph20.9 kmh 30.03 in1016.9 mb 0.00 in0.0 mm 0.00 in0.0 mm 0.11 in2.8 mm
09:08 AM 68.1°F20.1°C 66.0°F18.9°C 93% 4.1 mph SSW6.6 kmh SSW 13.0 mph20.9 kmh 30.04 in1017.3 mb 0.00 in0.0 mm 0.00 in0.0 mm 0.11 in2.8 mm
09:13 AM 68.1°F20.1°C 66.0°F18.9°C 93% 3.4 mph S5.5 kmh S 13.0 mph20.9 kmh 30.04 in1017.3 mb 0.00 in0.0 mm 0.00 in0.0 mm 0.11 in2.8 mm
09:18 AM 68.2°F20.1°C 66.1°F18.9°C 93% 4.6 mph SSW7.4 kmh SSW 12.0 mph19.3 kmh 30.04 in1017.3 mb 0.00 in0.0 mm 0.00 in0.0 mm 0.11 in2.8 mm
09:21 AM 68.3°F20.2°C 66.2°F19.0°C 93% 6.1 mph SSW9.8 kmh SSW 15.0 mph24.1 kmh 30.04 in1017.3 mb 0.00 in0.0 mm 0.00 in0.0 mm 0.11 in2.8 mm
09:26 AM 68.4°F20.2°C 66.0°F18.9°C 92% 3.9 mph S6.3 kmh S 15.0 mph24.1 kmh 30.04 in1017.3 mb 0.00 in0.0 mm 0.00 in0.0 mm 0.11 in2.8 mm
09:32 AM 68.5°F20.3°C 66.1°F18.9°C 92% 4.3 mph S6.9 kmh S 15.0 mph24.1 kmh 30.04 in1017.3 mb 0.00 in0.0 mm 0.00 in0.0 mm 0.11 in2.8 mm
09:36 AM 68.5°F20.3°C 66.1°F18.9°C 92% 7.5 mph SSW12.1 kmh SSW 15.0 mph24.1 kmh 30.04 in1017.3 mb 0.00 in0.0 mm 0.00 in0.0 mm 0.11 in2.8 mm
09:42 AM 68.5°F20.3°C 66.1°F18.9°C 92% 3.0 mph SSW4.8 kmh SSW 14.0 mph22.5 kmh 30.03 in1016.9 mb 0.00 in0.0 mm 0.00 in0.0 mm 0.11 in2.8 mm
09:46 AM 68.5°F20.3°C 66.1°F18.9°C 92% 4.2 mph S6.8 kmh S 18.0 mph29.0 kmh 30.03 in1016.9 mb 0.00 in0.0 mm 0.00 in0.0 mm 0.11 in2.8 mm
09:52 AM 68.5°F20.3°C 66.4°F19.1°C 93% 5.4 mph S8.7 kmh S 18.0 mph29.0 kmh 30.03 in1016.9 mb 0.00 in0.0 mm 0.00 in0.0 mm 0.11 in2.8 mm
09:57 AM 68.5°F20.3°C 66.4°F19.1°C 93% 4.9 mph S7.9 kmh S 18.0 mph29.0 kmh 30.03 in1016.9 mb 0.00 in0.0 mm 0.00 in0.0 mm 0.11 in2.8 mm
10:02 AM 68.4°F20.2°C 66.3°F19.1°C 93% 3.8 mph S6.1 kmh S 13.0 mph20.9 kmh 30.03 in1016.9 mb 0.00 in0.0 mm 0.00 in0.0 mm 0.11 in2.8 mm
10:07 AM 68.4°F20.2°C 66.3°F19.1°C 93% 2.4 mph S3.9 kmh S 13.0 mph20.9 kmh 30.03 in1016.9 mb 0.00 in0.0 mm 0.00 in0.0 mm 0.11 in2.8 mm
10:12 AM 68.3°F20.2°C 66.5°F19.2°C 94% 3.9 mph SSW6.3 kmh SSW 13.0 mph20.9 kmh 30.03 in1016.9 mb 0.00 in0.0 mm 0.00 in0.0 mm 0.11 in2.8 mm
10:17 AM 68.3°F20.2°C 66.5°F19.2°C 94% 3.4 mph SSW5.5 kmh SSW 12.0 mph19.3 kmh 30.03 in1016.9 mb 0.00 in0.0 mm 0.00 in0.0 mm 0.11 in2.8 mm
10:22 AM 68.3°F20.2°C 66.5°F19.2°C 94% 3.1 mph S5.0 kmh S 12.0 mph19.3 kmh 30.04 in1017.3 mb 0.00 in0.0 mm 0.00 in0.0 mm 0.11 in2.8 mm
10:27 AM 68.3°F20.2°C 66.5°F19.2°C 94% 4.1 mph S6.6 kmh S 12.0 mph19.3 kmh 30.04 in1017.3 mb 0.00 in0.0 mm 0.00 in0.0 mm 0.11 in2.8 mm
10:32 AM 68.4°F20.2°C 66.6°F19.2°C 94% 4.1 mph S6.6 kmh S 11.0 mph17.7 kmh 30.04 in1017.3 mb 0.00 in0.0 mm 0.00 in0.0 mm 0.11 in2.8 mm
10:37 AM 68.4°F20.2°C 66.6°F19.2°C 94% 5.3 mph SSW8.5 kmh SSW 11.0 mph17.7 kmh 30.04 in1017.3 mb 0.00 in0.0 mm 0.00 in0.0 mm 0.11 in2.8 mm
10:42 AM 68.4°F20.2°C 66.6°F19.2°C 94% 4.0 mph S6.4 kmh S 11.0 mph17.7 kmh 30.04 in1017.3 mb 0.00 in0.0 mm 0.00 in0.0 mm 0.11 in2.8 mm
10:47 AM 68.5°F20.3°C 66.7°F19.3°C 94% 2.4 mph S3.9 kmh S 13.0 mph20.9 kmh 30.03 in1016.9 mb 0.00 in0.0 mm 0.00 in0.0 mm 0.11 in2.8 mm
10:52 AM 68.5°F20.3°C 66.7°F19.3°C 94% 4.3 mph SSW6.9 kmh SSW 13.0 mph20.9 kmh 30.04 in1017.3 mb 0.00 in0.0 mm 0.00 in0.0 mm 0.11 in2.8 mm
10:57 AM 68.6°F20.3°C 66.8°F19.3°C 94% 6.3 mph W10.1 kmh W 13.0 mph20.9 kmh 30.07 in1018.3 mb 0.00 in0.0 mm 0.00 in0.0 mm 0.11 in2.8 mm
11:02 AM 65.0°F18.3°C 60.4°F15.8°C 85% 10.4 mph NW16.7 kmh NW 22.0 mph35.4 kmh 30.08 in1018.6 mb 0.00 in0.0 mm 0.00 in0.0 mm 0.11 in2.8 mm
11:07 AM 61.8°F16.6°C 59.1°F15.1°C 91% 7.9 mph NW12.7 kmh NW 22.0 mph35.4 kmh 30.07 in1018.3 mb 0.20 in5.1 mm 2.40 in61.0 mm 0.31 in7.9 mm
11:12 AM 60.7°F15.9°C 58.6°F14.8°C 93% 2.9 mph NW4.7 kmh NW 22.0 mph35.4 kmh 30.07 in1018.3 mb 0.24 in6.1 mm 0.48 in12.2 mm 0.35 in8.9 mm
11:17 AM 60.2°F15.7°C 58.4°F14.7°C 94% 3.4 mph W5.5 kmh W 22.0 mph35.4 kmh 30.07 in1018.3 mb 0.29 in7.4 mm 0.60 in15.2 mm 0.40 in10.2 mm
11:22 AM 59.9°F15.5°C 58.4°F14.7°C 95% 3.6 mph WNW5.8 kmh WNW 18.0 mph29.0 kmh 30.06 in1017.9 mb 0.33 in8.4 mm 0.48 in12.2 mm 0.44 in11.2 mm
11:27 AM 59.7°F15.4°C 58.2°F14.6°C 95% 4.4 mph W7.1 kmh W 14.0 mph22.5 kmh 30.07 in1018.3 mb 0.37 in9.4 mm 0.48 in12.2 mm 0.48 in12.2 mm
11:32 AM 59.5°F15.3°C 58.3°F14.6°C 96% 2.6 mph W4.2 kmh W 9.0 mph14.5 kmh 30.06 in1017.9 mb 0.50 in12.7 mm 1.56 in39.6 mm 0.62 in15.7 mm
11:37 AM 59.4°F15.2°C 58.2°F14.6°C 96% 3.9 mph WNW6.3 kmh WNW 9.0 mph14.5 kmh 30.06 in1017.9 mb 0.55 in14.0 mm 0.60 in15.2 mm 0.66 in16.8 mm
11:42 AM 59.3°F15.2°C 58.1°F14.5°C 96% 4.6 mph SW7.4 kmh SW 11.0 mph17.7 kmh 30.08 in1018.6 mb 0.59 in15.0 mm 0.48 in12.2 mm 0.70 in17.8 mm
11:47 AM 59.1°F15.1°C 57.9°F14.4°C 96% 1.9 mph WSW3.1 kmh WSW 11.0 mph17.7 kmh 30.07 in1018.3 mb 0.62 in15.7 mm 0.36 in9.1 mm 0.73 in18.5 mm
11:52 AM 59.1°F15.1°C 57.9°F14.4°C 96% 3.7 mph SW6.0 kmh SW 11.0 mph17.7 kmh 30.07 in1018.3 mb 0.65 in16.5 mm 0.36 in9.1 mm 0.76 in19.3 mm
11:57 AM 59.1°F15.1°C 57.9°F14.4°C 96% 1.2 mph WSW1.9 kmh WSW 11.0 mph17.7 kmh 30.06 in1017.9 mb 0.66 in16.8 mm 0.12 in3.0 mm 0.77 in19.6 mm
12:02 PM 59.0°F15.0°C 57.8°F14.3°C 96% 1.0 mph WSW1.6 kmh WSW 8.0 mph12.9 kmh 30.06 in1017.9 mb 0.65 in16.5 mm 0.00 in0.0 mm 0.78 in19.8 mm
12:07 PM 59.1°F15.1°C 57.9°F14.4°C 96% Calm Calm 7.0 mph11.3 kmh 30.06 in1017.9 mb 0.49 in12.4 mm 0.00 in0.0 mm 0.80 in20.3 mm
12:12 PM 59.0°F15.0°C 58.1°F14.5°C 97% 1.3 mph S2.1 kmh S 2.0 mph3.2 kmh 30.06 in1017.9 mb 0.47 in11.9 mm 0.00 in0.0 mm 0.82 in20.8 mm
12:17 PM 59.0°F15.0°C 58.1°F14.5°C 97% Calm Calm 2.0 mph3.2 kmh 30.05 in1017.6 mb 0.45 in11.4 mm 0.00 in0.0 mm 0.85 in21.6 mm
12:22 PM 59.0°F15.0°C 58.1°F14.5°C 97% 1.0 mph ESE1.6 kmh ESE 2.0 mph3.2 kmh 30.03 in1016.9 mb 0.43 in10.9 mm 0.00 in0.0 mm 0.87 in22.1 mm
12:27 PM 58.9°F14.9°C 58.0°F14.4°C 97% 1.5 mph SE2.4 kmh SE 3.0 mph4.8 kmh 30.03 in1016.9 mb 0.41 in10.4 mm 0.00 in0.0 mm 0.89 in22.6 mm
12:32 PM 58.9°F14.9°C 58.0°F14.4°C 97% 1.0 mph SE1.6 kmh SE 3.0 mph4.8 kmh 30.03 in1016.9 mb 0.28 in7.1 mm 0.00 in0.0 mm 0.90 in22.9 mm
12:37 PM 58.9°F14.9°C 58.0°F14.4°C 97% 1.0 mph SE1.6 kmh SE 3.0 mph4.8 kmh 30.03 in1016.9 mb 0.26 in6.6 mm 0.00 in0.0 mm 0.92 in23.4 mm
12:42 PM 58.9°F14.9°C 58.0°F14.4°C 97% 1.0 mph SE1.6 kmh SE 3.0 mph4.8 kmh 30.02 in1016.6 mb 0.24 in6.1 mm 0.00 in0.0 mm 0.94 in23.9 mm
12:47 PM 58.9°F14.9°C 58.0°F14.4°C 97% 1.2 mph SE1.9 kmh SE 2.0 mph3.2 kmh 30.02 in1016.6 mb 0.22 in5.6 mm 0.00 in0.0 mm 0.95 in24.1 mm
12:52 PM 58.9°F14.9°C 58.0°F14.4°C 97% 1.0 mph SSE1.6 kmh SSE 2.0 mph3.2 kmh 30.02 in1016.6 mb 0.21 in5.3 mm 0.00 in0.0 mm 0.97 in24.6 mm
12:57 PM 58.9°F14.9°C 58.0°F14.4°C 97% 1.1 mph S1.8 kmh S 3.0 mph4.8 kmh 30.01 in1016.3 mb 0.22 in5.6 mm 0.12 in3.0 mm 0.99 in25.1 mm
01:02 PM 58.9°F14.9°C 58.0°F14.4°C 97% 3.0 mph SE4.8 kmh SE 6.0 mph9.7 kmh 30.01 in1016.3 mb 0.23 in5.8 mm 0.01 in0.3 mm 1.01 in25.7 mm
01:07 PM 58.9°F14.9°C 58.0°F14.4°C 97% 3.1 mph SSE5.0 kmh SSE 8.0 mph12.9 kmh 30.00 in1015.9 mb 0.22 in5.6 mm 0.00 in0.0 mm 1.02 in25.9 mm
01:12 PM 58.9°F14.9°C 58.0°F14.4°C 97% 2.6 mph SE4.2 kmh SE 8.0 mph12.9 kmh 29.99 in1015.6 mb 0.21 in5.3 mm 0.00 in0.0 mm 1.03 in26.2 mm
01:17 PM 58.9°F14.9°C 58.0°F14.4°C 97% 1.0 mph SSE1.6 kmh SSE 8.0 mph12.9 kmh 29.99 in1015.6 mb 0.20 in5.1 mm 0.00 in0.0 mm 1.05 in26.7 mm
01:22 PM 59.0°F15.0°C 58.4°F14.7°C 98% 1.6 mph SSE2.6 kmh SSE 7.0 mph11.3 kmh 29.99 in1015.6 mb 0.20 in5.1 mm 0.00 in0.0 mm 1.07 in27.2 mm
01:27 PM 59.0°F15.0°C 58.4°F14.7°C 98% 1.9 mph SSE3.1 kmh SSE 4.0 mph6.4 kmh 29.99 in1015.6 mb 0.19 in4.8 mm 0.00 in0.0 mm 1.08 in27.4 mm
01:32 PM 59.1°F15.1°C 58.5°F14.7°C 98% 1.4 mph SE2.3 kmh SE 5.0 mph8.0 kmh 29.98 in1015.2 mb 0.18 in4.6 mm 0.00 in0.0 mm 1.08 in27.4 mm
01:37 PM 59.1°F15.1°C 58.5°F14.7°C 98% 1.0 mph SE1.6 kmh SE 5.0 mph8.0 kmh 29.98 in1015.2 mb 0.16 in4.1 mm 0.00 in0.0 mm 1.08 in27.4 mm
01:42 PM 59.1°F15.1°C 58.5°F14.7°C 98% 1.2 mph SSE1.9 kmh SSE 5.0 mph8.0 kmh 29.98 in1015.2 mb 0.14 in3.6 mm 0.00 in0.0 mm 1.08 in27.4 mm
01:47 PM 59.2°F15.1°C 58.6°F14.8°C 98% 1.4 mph SSE2.3 kmh SSE 4.0 mph6.4 kmh 29.99 in1015.6 mb 0.13 in3.3 mm 0.00 in0.0 mm 1.08 in27.4 mm
01:52 PM 59.2°F15.1°C 58.6°F14.8°C 98% 1.3 mph SSE2.1 kmh SSE 2.0 mph3.2 kmh 30.00 in1015.9 mb 0.12 in3.0 mm 0.00 in0.0 mm 1.09 in27.7 mm
01:57 PM 59.3°F15.2°C 58.7°F14.8°C 98% 1.2 mph S1.9 kmh S 5.0 mph8.0 kmh 30.01 in1016.3 mb 0.11 in2.8 mm 0.00 in0.0 mm 1.10 in27.9 mm
02:02 PM 59.3°F15.2°C 58.7°F14.8°C 98% 2.2 mph SW3.5 kmh SW 6.0 mph9.7 kmh 30.01 in1016.3 mb 0.09 in2.3 mm 0.00 in0.0 mm 1.10 in27.9 mm
02:07 PM 59.4°F15.2°C 58.8°F14.9°C 98% 3.4 mph SSW5.5 kmh SSW 6.0 mph9.7 kmh 30.02 in1016.6 mb 0.09 in2.3 mm 0.00 in0.0 mm 1.11 in28.2 mm
02:12 PM 59.5°F15.3°C 58.9°F14.9°C 98% 3.4 mph SW5.5 kmh SW 7.0 mph11.3 kmh 30.04 in1017.3 mb 0.08 in2.0 mm 0.00 in0.0 mm 1.12 in28.4 mm
02:17 PM 59.5°F15.3°C 58.9°F14.9°C 98% 3.2 mph SSW5.1 kmh SSW 7.0 mph11.3 kmh 30.04 in1017.3 mb 0.08 in2.0 mm 0.00 in0.0 mm 1.13 in28.7 mm
02:22 PM 59.6°F15.3°C 59.0°F15.0°C 98% 2.2 mph SSW3.5 kmh SSW 7.0 mph11.3 kmh 30.04 in1017.3 mb 0.07 in1.8 mm 0.00 in0.0 mm 1.14 in29.0 mm
02:27 PM 59.6°F15.3°C 59.0°F15.0°C 98% 1.3 mph SW2.1 kmh SW 7.0 mph11.3 kmh 30.03 in1016.9 mb 0.08 in2.0 mm 0.12 in3.0 mm 1.16 in29.5 mm
02:32 PM 59.6°F15.3°C 59.0°F15.0°C 98% 1.9 mph S3.1 kmh S 7.0 mph11.3 kmh 30.03 in1016.9 mb 0.10 in2.5 mm 0.24 in6.1 mm 1.18 in30.0 mm
02:37 PM 59.6°F15.3°C 59.0°F15.0°C 98% 1.1 mph SSE1.8 kmh SSE 5.0 mph8.0 kmh 30.03 in1016.9 mb 0.12 in3.0 mm 0.24 in6.1 mm 1.20 in30.5 mm
02:42 PM 59.6°F15.3°C 59.0°F15.0°C 98% 1.4 mph SE2.3 kmh SE 4.0 mph6.4 kmh 30.02 in1016.6 mb 0.14 in3.6 mm 0.24 in6.1 mm 1.22 in31.0 mm
02:47 PM 59.5°F15.3°C 58.9°F14.9°C 98% 1.7 mph SSE2.7 kmh SSE 4.0 mph6.4 kmh 30.03 in1016.9 mb 0.16 in4.1 mm 0.24 in6.1 mm 1.24 in31.5 mm
02:52 PM 59.5°F15.3°C 58.9°F14.9°C 98% 3.4 mph SE5.5 kmh SE 8.0 mph12.9 kmh 30.03 in1016.9 mb 0.16 in4.1 mm 0.00 in0.0 mm 1.25 in31.8 mm
02:57 PM 59.5°F15.3°C 58.9°F14.9°C 98% 3.2 mph SE5.1 kmh SE 8.0 mph12.9 kmh 30.01 in1016.3 mb 0.16 in4.1 mm 0.00 in0.0 mm 1.26 in32.0 mm
03:02 PM 59.5°F15.3°C 58.9°F14.9°C 98% 4.2 mph SSE6.8 kmh SSE 9.0 mph14.5 kmh 30.02 in1016.6 mb 0.16 in4.1 mm 0.00 in0.0 mm 1.26 in32.0 mm
03:07 PM 59.5°F15.3°C 58.9°F14.9°C 98% 3.2 mph SE5.1 kmh SE 9.0 mph14.5 kmh 30.01 in1016.3 mb 0.15 in3.8 mm 0.00 in0.0 mm 1.26 in32.0 mm
03:12 PM 59.5°F15.3°C 58.9°F14.9°C 98% 2.4 mph SSE3.9 kmh SSE 9.0 mph14.5 kmh 30.02 in1016.6 mb 0.14 in3.6 mm 0.00 in0.0 mm 1.26 in32.0 mm
03:17 PM 59.5°F15.3°C 58.9°F14.9°C 98% 3.2 mph SE5.1 kmh SE 9.0 mph14.5 kmh 30.02 in1016.6 mb 0.13 in3.3 mm 0.00 in0.0 mm 1.26 in32.0 mm
03:21 PM 59.6°F15.3°C 59.0°F15.0°C 98% 2.4 mph S3.9 kmh S 9.0 mph14.5 kmh 30.03 in1016.9 mb 0.12 in3.0 mm 0.00 in0.0 mm 1.26 in32.0 mm
03:26 PM 59.6°F15.3°C 59.0°F15.0°C 98% 1.5 mph S2.4 kmh S 9.0 mph14.5 kmh 30.04 in1017.3 mb 0.11 in2.8 mm 0.00 in0.0 mm 1.27 in32.3 mm
03:31 PM 59.7°F15.4°C 59.1°F15.1°C 98% 1.4 mph SW2.3 kmh SW 8.0 mph12.9 kmh 30.04 in1017.3 mb 0.09 in2.3 mm 0.00 in0.0 mm 1.27 in32.3 mm
03:36 PM 59.7°F15.4°C 59.1°F15.1°C 98% 1.9 mph S3.1 kmh S 8.0 mph12.9 kmh 30.03 in1016.9 mb 0.08 in2.0 mm 0.00 in0.0 mm 1.27 in32.3 mm
03:41 PM 59.7°F15.4°C 59.1°F15.1°C 98% 1.6 mph SE2.6 kmh SE 8.0 mph12.9 kmh 30.02 in1016.6 mb 0.05 in1.3 mm 0.00 in0.0 mm 1.27 in32.3 mm
03:46 PM 59.8°F15.4°C 59.2°F15.1°C 98% 1.9 mph SE3.1 kmh SE 8.0 mph12.9 kmh 30.02 in1016.6 mb 0.04 in1.0 mm 0.00 in0.0 mm 1.27 in32.3 mm
03:51 PM 59.8°F15.4°C 59.2°F15.1°C 98% 2.4 mph SE3.9 kmh SE 8.0 mph12.9 kmh 30.01 in1016.3 mb 0.02 in0.5 mm 0.00 in0.0 mm 1.27 in32.3 mm
03:56 PM 59.8°F15.4°C 59.2°F15.1°C 98% 4.1 mph SE6.6 kmh SE 9.0 mph14.5 kmh 30.00 in1015.9 mb 0.02 in0.5 mm 0.00 in0.0 mm 1.27 in32.3 mm
04:01 PM 59.9°F15.5°C 59.3°F15.2°C 98% 4.7 mph SE7.6 kmh SE 9.0 mph14.5 kmh 29.99 in1015.6 mb 0.01 in0.3 mm 0.00 in0.0 mm 1.27 in32.3 mm
04:06 PM 59.8°F15.4°C 59.2°F15.1°C 98% 3.7 mph SSE6.0 kmh SSE 10.0 mph16.1 kmh 29.99 in1015.6 mb 0.01 in0.3 mm 0.00 in0.0 mm 1.27 in32.3 mm
04:11 PM 59.8°F15.4°C 59.2°F15.1°C 98% 3.6 mph SSE5.8 kmh SSE 10.0 mph16.1 kmh 30.00 in1015.9 mb 0.01 in0.3 mm 0.00 in0.0 mm 1.27 in32.3 mm
04:16 PM 59.9°F15.5°C 59.3°F15.2°C 98% 2.9 mph S4.7 kmh S 10.0 mph16.1 kmh 30.00 in1015.9 mb 0.01 in0.3 mm 0.00 in0.0 mm 1.27 in32.3 mm
04:21 PM 59.9°F15.5°C 59.3°F15.2°C 98% 2.3 mph S3.7 kmh S 10.0 mph16.1 kmh 30.01 in1016.3 mb 0.01 in0.3 mm 0.00 in0.0 mm 1.27 in32.3 mm
04:26 PM 59.9°F15.5°C 59.3°F15.2°C 98% 1.0 mph SW1.6 kmh SW 10.0 mph16.1 kmh 30.02 in1016.6 mb 0.00 in0.0 mm 0.00 in0.0 mm 1.27 in32.3 mm
04:31 PM 59.8°F15.4°C 59.2°F15.1°C 98% 1.9 mph SSW3.1 kmh SSW 8.0 mph12.9 kmh 30.02 in1016.6 mb 0.00 in0.0 mm 0.00 in0.0 mm 1.27 in32.3 mm
04:36 PM 59.9°F15.5°C 59.3°F15.2°C 98% 5.6 mph WNW9.0 kmh WNW 9.0 mph14.5 kmh 30.05 in1017.6 mb 0.00 in0.0 mm 0.00 in0.0 mm 1.27 in32.3 mm
04:41 PM 59.9°F15.5°C 59.3°F15.2°C 98% 4.5 mph WNW7.2 kmh WNW 16.0 mph25.7 kmh 30.06 in1017.9 mb 0.00 in0.0 mm 0.00 in0.0 mm 1.27 in32.3 mm
04:46 PM 59.9°F15.5°C 59.3°F15.2°C 98% 3.5 mph WNW5.6 kmh WNW 16.0 mph25.7 kmh 30.05 in1017.6 mb 0.00 in0.0 mm 0.00 in0.0 mm 1.27 in32.3 mm
04:51 PM 59.9°F15.5°C 59.3°F15.2°C 98% 4.3 mph W6.9 kmh W 16.0 mph25.7 kmh 30.05 in1017.6 mb 0.00 in0.0 mm 0.00 in0.0 mm 1.27 in32.3 mm
04:56 PM 59.9°F15.5°C 59.3°F15.2°C 98% 1.2 mph WSW1.9 kmh WSW 16.0 mph25.7 kmh 30.04 in1017.3 mb 0.00 in0.0 mm 0.00 in0.0 mm 1.27 in32.3 mm
05:01 PM 59.9°F15.5°C 59.3°F15.2°C 98% 3.4 mph W5.5 kmh W 8.0 mph12.9 kmh 30.06 in1017.9 mb 0.00 in0.0 mm 0.00 in0.0 mm 1.27 in32.3 mm
05:06 PM 59.9°F15.5°C 59.3°F15.2°C 98% 1.4 mph W2.3 kmh W 8.0 mph12.9 kmh 30.06 in1017.9 mb 0.00 in0.0 mm 0.00 in0.0 mm 1.27 in32.3 mm
05:11 PM 59.9°F15.5°C 59.3°F15.2°C 98% 2.1 mph WSW3.4 kmh WSW 8.0 mph12.9 kmh 30.07 in1018.3 mb 0.00 in0.0 mm 0.00 in0.0 mm 1.27 in32.3 mm
05:16 PM 59.9°F15.5°C 59.3°F15.2°C 98% 1.8 mph W2.9 kmh W 8.0 mph12.9 kmh 30.08 in1018.6 mb 0.00 in0.0 mm 0.00 in0.0 mm 1.27 in32.3 mm
05:21 PM 59.9°F15.5°C 59.3°F15.2°C 98% 1.5 mph WSW2.4 kmh WSW 7.0 mph11.3 kmh 30.08 in1018.6 mb 0.00 in0.0 mm 0.00 in0.0 mm 1.27 in32.3 mm
05:26 PM 59.8°F15.4°C 59.2°F15.1°C 98% 1.6 mph WSW2.6 kmh WSW 6.0 mph9.7 kmh 30.07 in1018.3 mb 0.00 in0.0 mm 0.00 in0.0 mm 1.27 in32.3 mm
05:31 PM 59.8°F15.4°C 59.2°F15.1°C 98% 1.7 mph W2.7 kmh W 6.0 mph9.7 kmh 30.08 in1018.6 mb 0.00 in0.0 mm 0.00 in0.0 mm 1.27 in32.3 mm
05:36 PM 59.8°F15.4°C 59.2°F15.1°C 98% 1.0 mph W1.6 kmh W 5.0 mph8.0 kmh 30.07 in1018.3 mb 0.00 in0.0 mm 0.00 in0.0 mm 1.27 in32.3 mm
05:41 PM 59.8°F15.4°C 59.2°F15.1°C 98% 1.4 mph WSW2.3 kmh WSW 5.0 mph8.0 kmh 30.07 in1018.3 mb 0.00 in0.0 mm 0.00 in0.0 mm 1.27 in32.3 mm
05:46 PM 59.8°F15.4°C 59.2°F15.1°C 98% 1.2 mph SW1.9 kmh SW 5.0 mph8.0 kmh 30.07 in1018.3 mb 0.00 in0.0 mm 0.00 in0.0 mm 1.27 in32.3 mm
05:51 PM 59.8°F15.4°C 59.2°F15.1°C 98% 1.1 mph WSW1.8 kmh WSW 4.0 mph6.4 kmh 30.06 in1017.9 mb 0.00 in0.0 mm 0.00 in0.0 mm 1.27 in32.3 mm
05:56 PM 59.8°F15.4°C 59.2°F15.1°C 98% 1.8 mph WSW2.9 kmh WSW 4.0 mph6.4 kmh 30.07 in1018.3 mb 0.00 in0.0 mm 0.00 in0.0 mm 1.27 in32.3 mm
06:01 PM 59.8°F15.4°C 59.2°F15.1°C 98% 1.4 mph WSW2.3 kmh WSW 4.0 mph6.4 kmh 30.07 in1018.3 mb 0.00 in0.0 mm 0.00 in0.0 mm 1.27 in32.3 mm
06:06 PM 59.8°F15.4°C 59.2°F15.1°C 98% 1.3 mph W2.1 kmh W 4.0 mph6.4 kmh 30.07 in1018.3 mb 0.01 in0.3 mm 0.12 in3.0 mm 1.28 in32.5 mm
06:11 PM 59.7°F15.4°C 59.1°F15.1°C 98% Calm Calm 4.0 mph6.4 kmh 30.06 in1017.9 mb 0.01 in0.3 mm 0.00 in0.0 mm 1.28 in32.5 mm
06:16 PM 59.7°F15.4°C 59.1°F15.1°C 98% 1.0 mph SE1.6 kmh SE 4.0 mph6.4 kmh 30.06 in1017.9 mb 0.01 in0.3 mm 0.00 in0.0 mm 1.28 in32.5 mm
06:21 PM 59.7°F15.4°C 59.1°F15.1°C 98% 2.6 mph SE4.2 kmh SE 4.0 mph6.4 kmh 30.05 in1017.6 mb 0.01 in0.3 mm 0.00 in0.0 mm 1.28 in32.5 mm
06:26 PM 59.7°F15.4°C 59.1°F15.1°C 98% 4.4 mph SE7.1 kmh SE 7.0 mph11.3 kmh 30.05 in1017.6 mb 0.02 in0.5 mm 0.12 in3.0 mm 1.29 in32.8 mm
06:31 PM 59.7°F15.4°C 59.1°F15.1°C 98% 3.7 mph SE6.0 kmh SE 7.0 mph11.3 kmh 30.04 in1017.3 mb 0.02 in0.5 mm 0.00 in0.0 mm 1.29 in32.8 mm
06:36 PM 59.6°F15.3°C 59.0°F15.0°C 98% 2.7 mph SE4.3 kmh SE 7.0 mph11.3 kmh 30.03 in1016.9 mb 0.02 in0.5 mm 0.00 in0.0 mm 1.29 in32.8 mm
06:41 PM 59.6°F15.3°C 59.0°F15.0°C 98% 4.2 mph SE6.8 kmh SE 7.0 mph11.3 kmh 30.03 in1016.9 mb 0.02 in0.5 mm 0.00 in0.0 mm 1.29 in32.8 mm
06:46 PM 59.6°F15.3°C 59.0°F15.0°C 98% 2.8 mph SE4.5 kmh SE 8.0 mph12.9 kmh 30.03 in1016.9 mb 0.03 in0.8 mm 0.12 in3.0 mm 1.30 in33.0 mm
06:51 PM 59.7°F15.4°C 59.1°F15.1°C 98% 5.8 mph SE9.3 kmh SE 12.0 mph19.3 kmh 30.02 in1016.6 mb 0.03 in0.8 mm 0.00 in0.0 mm 1.30 in33.0 mm
06:56 PM 59.7°F15.4°C 59.1°F15.1°C 98% 8.1 mph NW13.0 kmh NW 18.0 mph29.0 kmh 30.06 in1017.9 mb 0.03 in0.8 mm 0.00 in0.0 mm 1.30 in33.0 mm
07:01 PM 59.8°F15.4°C 59.2°F15.1°C 98% 3.3 mph NW5.3 kmh NW 18.0 mph29.0 kmh 30.05 in1017.6 mb 0.03 in0.8 mm 0.00 in0.0 mm 1.30 in33.0 mm
07:06 PM 59.9°F15.5°C 59.3°F15.2°C 98% 3.0 mph WNW4.8 kmh WNW 18.0 mph29.0 kmh 30.07 in1018.3 mb 0.02 in0.5 mm 0.00 in0.0 mm 1.30 in33.0 mm
07:11 PM 59.9°F15.5°C 59.3°F15.2°C 98% 4.8 mph WNW7.7 kmh WNW 18.0 mph29.0 kmh 30.09 in1019.0 mb 0.02 in0.5 mm 0.00 in0.0 mm 1.30 in33.0 mm
07:16 PM 60.0°F15.6°C 59.4°F15.2°C 98% 1.3 mph WNW2.1 kmh WNW 12.0 mph19.3 kmh 30.07 in1018.3 mb 0.02 in0.5 mm 0.00 in0.0 mm 1.30 in33.0 mm
07:21 PM 60.0°F15.6°C 59.4°F15.2°C 98% 1.0 mph E1.6 kmh E 11.0 mph17.7 kmh 30.05 in1017.6 mb 0.02 in0.5 mm 0.00 in0.0 mm 1.30 in33.0 mm
07:26 PM 60.0°F15.6°C 59.4°F15.2°C 98% Calm Calm 11.0 mph17.7 kmh 30.07 in1018.3 mb 0.01 in0.3 mm 0.00 in0.0 mm 1.30 in33.0 mm
07:31 PM 60.0°F15.6°C 59.4°F15.2°C 98% 1.1 mph W1.8 kmh W 8.0 mph12.9 kmh 30.09 in1019.0 mb 0.01 in0.3 mm 0.00 in0.0 mm 1.30 in33.0 mm
07:36 PM 60.0°F15.6°C 59.4°F15.2°C 98% 1.6 mph SW2.6 kmh SW 3.0 mph4.8 kmh 30.10 in1019.3 mb 0.01 in0.3 mm 0.00 in0.0 mm 1.30 in33.0 mm
07:41 PM 60.1°F15.6°C 59.5°F15.3°C 98% 2.3 mph SW3.7 kmh SW 5.0 mph8.0 kmh 30.10 in1019.3 mb 0.01 in0.3 mm 0.00 in0.0 mm 1.30 in33.0 mm
07:46 PM 60.0°F15.6°C 59.4°F15.2°C 98% 1.5 mph SW2.4 kmh SW 5.0 mph8.0 kmh 30.10 in1019.3 mb 0.00 in0.0 mm 0.00 in0.0 mm 1.30 in33.0 mm
07:51 PM 60.0°F15.6°C 59.4°F15.2°C 98% 1.0 mph SW1.6 kmh SW 5.0 mph8.0 kmh 30.09 in1019.0 mb 0.00 in0.0 mm 0.00 in0.0 mm 1.30 in33.0 mm
07:56 PM 60.0°F15.6°C 59.4°F15.2°C 98% Calm Calm 5.0 mph8.0 kmh 30.09 in1019.0 mb 0.00 in0.0 mm 0.00 in0.0 mm 1.30 in33.0 mm
08:01 PM 59.9°F15.5°C 59.3°F15.2°C 98% Calm Calm 4.0 mph6.4 kmh 30.09 in1019.0 mb 0.00 in0.0 mm 0.00 in0.0 mm 1.30 in33.0 mm
08:06 PM 59.8°F15.4°C 59.2°F15.1°C 98% 1.0 mph S1.6 kmh S 1.0 mph1.6 kmh 30.09 in1019.0 mb 0.00 in0.0 mm 0.00 in0.0 mm 1.30 in33.0 mm
08:11 PM 59.9°F15.5°C 59.3°F15.2°C 98% 1.0 mph S1.6 kmh S 2.0 mph3.2 kmh 30.09 in1019.0 mb 0.00 in0.0 mm 0.00 in0.0 mm 1.30 in33.0 mm
08:16 PM 59.8°F15.4°C 59.2°F15.1°C 98% 1.0 mph SSE1.6 kmh SSE 2.0 mph3.2 kmh 30.09 in1019.0 mb 0.00 in0.0 mm 0.00 in0.0 mm 1.30 in33.0 mm
08:21 PM 59.8°F15.4°C 59.2°F15.1°C 98% Calm Calm 2.0 mph3.2 kmh 30.09 in1019.0 mb 0.00 in0.0 mm 0.00 in0.0 mm 1.30 in33.0 mm
08:26 PM 59.9°F15.5°C 59.3°F15.2°C 98% 2.2 mph SW3.5 kmh SW 6.0 mph9.7 kmh 30.10 in1019.3 mb 0.00 in0.0 mm 0.00 in0.0 mm 1.30 in33.0 mm
08:31 PM 59.9°F15.5°C 59.3°F15.2°C 98% 1.0 mph SW1.6 kmh SW 6.0 mph9.7 kmh 30.09 in1019.0 mb 0.00 in0.0 mm 0.00 in0.0 mm 1.30 in33.0 mm
08:36 PM 59.8°F15.4°C 59.2°F15.1°C 98% 1.4 mph SW2.3 kmh SW 6.0 mph9.7 kmh 30.10 in1019.3 mb 0.00 in0.0 mm 0.00 in0.0 mm 1.30 in33.0 mm
08:41 PM 59.7°F15.4°C 59.1°F15.1°C 98% 1.2 mph SW1.9 kmh SW 6.0 mph9.7 kmh 30.10 in1019.3 mb 0.00 in0.0 mm 0.00 in0.0 mm 1.30 in33.0 mm
08:46 PM 59.7°F15.4°C 59.1°F15.1°C 98% 1.4 mph SW2.3 kmh SW 3.0 mph4.8 kmh 30.11 in1019.6 mb 0.00 in0.0 mm 0.00 in0.0 mm 1.30 in33.0 mm
08:51 PM 59.7°F15.4°C 59.1°F15.1°C 98% Calm Calm 3.0 mph4.8 kmh 30.10 in1019.3 mb 0.00 in0.0 mm 0.00 in0.0 mm 1.30 in33.0 mm
08:56 PM 59.6°F15.3°C 59.0°F15.0°C 98% Calm Calm 3.0 mph4.8 kmh 30.10 in1019.3 mb 0.00 in0.0 mm 0.00 in0.0 mm 1.30 in33.0 mm
09:01 PM 59.7°F15.4°C 59.1°F15.1°C 98% Calm Calm 3.0 mph4.8 kmh 30.10 in1019.3 mb 0.00 in0.0 mm 0.00 in0.0 mm 1.30 in33.0 mm
09:06 PM 59.7°F15.4°C 59.1°F15.1°C 98% Calm Calm 1.0 mph1.6 kmh 30.10 in1019.3 mb 0.00 in0.0 mm 0.00 in0.0 mm 1.30 in33.0 mm
09:11 PM 59.6°F15.3°C 59.0°F15.0°C 98% Calm Calm 1.0 mph1.6 kmh 30.09 in1019.0 mb 0.00 in0.0 mm 0.00 in0.0 mm 1.30 in33.0 mm
09:15 PM 59.6°F15.3°C 59.0°F15.0°C 98% 1.0 mph W1.6 kmh W 1.0 mph1.6 kmh 30.09 in1019.0 mb 0.00 in0.0 mm 0.00 in0.0 mm 1.30 in33.0 mm
09:20 PM 59.6°F15.3°C 59.0°F15.0°C 98% 1.0 mph WSW1.6 kmh WSW 1.0 mph1.6 kmh 30.10 in1019.3 mb 0.00 in0.0 mm 0.00 in0.0 mm 1.30 in33.0 mm
09:25 PM 59.6°F15.3°C 59.0°F15.0°C 98% 1.0 mph SW1.6 kmh SW 2.0 mph3.2 kmh 30.11 in1019.6 mb 0.00 in0.0 mm 0.00 in0.0 mm 1.30 in33.0 mm
09:30 PM 59.5°F15.3°C 58.9°F14.9°C 98% 1.0 mph WSW1.6 kmh WSW 3.0 mph4.8 kmh 30.11 in1019.6 mb 0.00 in0.0 mm 0.00 in0.0 mm 1.30 in33.0 mm
09:35 PM 59.5°F15.3°C 58.9°F14.9°C 98% 1.3 mph W2.1 kmh W 3.0 mph4.8 kmh 30.10 in1019.3 mb 0.00 in0.0 mm 0.00 in0.0 mm 1.30 in33.0 mm
09:40 PM 59.5°F15.3°C 58.9°F14.9°C 98% 1.1 mph W1.8 kmh W 3.0 mph4.8 kmh 30.10 in1019.3 mb 0.00 in0.0 mm 0.00 in0.0 mm 1.30 in33.0 mm
09:45 PM 59.5°F15.3°C 58.9°F14.9°C 98% 1.0 mph WSW1.6 kmh WSW 3.0 mph4.8 kmh 30.11 in1019.6 mb 0.00 in0.0 mm 0.00 in0.0 mm 1.30 in33.0 mm
09:50 PM 59.5°F15.3°C 58.9°F14.9°C 98% 1.0 mph S1.6 kmh S 3.0 mph4.8 kmh 30.11 in1019.6 mb 0.00 in0.0 mm 0.00 in0.0 mm 1.30 in33.0 mm
09:55 PM 59.5°F15.3°C 58.9°F14.9°C 98% 1.3 mph SSW2.1 kmh SSW 2.0 mph3.2 kmh 30.10 in1019.3 mb 0.00 in0.0 mm 0.00 in0.0 mm 1.30 in33.0 mm
10:00 PM 59.4°F15.2°C 58.8°F14.9°C 98% 1.0 mph SW1.6 kmh SW 2.0 mph3.2 kmh 30.11 in1019.6 mb 0.00 in0.0 mm 0.00 in0.0 mm 1.30 in33.0 mm
10:05 PM 59.4°F15.2°C 58.8°F14.9°C 98% 1.0 mph SW1.6 kmh SW 2.0 mph3.2 kmh 30.11 in1019.6 mb 0.00 in0.0 mm 0.00 in0.0 mm 1.30 in33.0 mm
10:10 PM 59.5°F15.3°C 58.9°F14.9°C 98% 1.5 mph SW2.4 kmh SW 2.0 mph3.2 kmh 30.12 in1020.0 mb 0.00 in0.0 mm 0.00 in0.0 mm 1.30 in33.0 mm
10:15 PM 59.5°F15.3°C 58.9°F14.9°C 98% 1.8 mph SW2.9 kmh SW 4.0 mph6.4 kmh 30.13 in1020.3 mb 0.00 in0.0 mm 0.00 in0.0 mm 1.30 in33.0 mm
10:20 PM 59.5°F15.3°C 58.9°F14.9°C 98% 2.1 mph SW3.4 kmh SW 4.0 mph6.4 kmh 30.13 in1020.3 mb 0.00 in0.0 mm 0.00 in0.0 mm 1.30 in33.0 mm
10:25 PM 59.4°F15.2°C 58.8°F14.9°C 98% 1.4 mph SW2.3 kmh SW 4.0 mph6.4 kmh 30.13 in1020.3 mb 0.00 in0.0 mm 0.00 in0.0 mm 1.30 in33.0 mm
10:30 PM 59.4°F15.2°C 58.8°F14.9°C 98% 1.2 mph SSW1.9 kmh SSW 4.0 mph6.4 kmh 30.12 in1020.0 mb 0.00 in0.0 mm 0.00 in0.0 mm 1.30 in33.0 mm
10:35 PM 59.3°F15.2°C 58.7°F14.8°C 98% 1.0 mph SW1.6 kmh SW 5.0 mph8.0 kmh 30.12 in1020.0 mb 0.00 in0.0 mm 0.00 in0.0 mm 1.30 in33.0 mm
10:40 PM 59.3°F15.2°C 58.7°F14.8°C 98% Calm Calm 5.0 mph8.0 kmh 30.11 in1019.6 mb 0.00 in0.0 mm 0.00 in0.0 mm 1.30 in33.0 mm
10:45 PM 59.3°F15.2°C 58.7°F14.8°C 98% 1.6 mph WSW2.6 kmh WSW 5.0 mph8.0 kmh 30.13 in1020.3 mb 0.00 in0.0 mm 0.00 in0.0 mm 1.30 in33.0 mm
10:50 PM 59.4°F15.2°C 58.8°F14.9°C 98% 1.3 mph SW2.1 kmh SW 3.0 mph4.8 kmh 30.13 in1020.3 mb 0.00 in0.0 mm 0.00 in0.0 mm 1.30 in33.0 mm
10:55 PM 59.3°F15.2°C 58.7°F14.8°C 98% Calm Calm 3.0 mph4.8 kmh 30.11 in1019.6 mb 0.00 in0.0 mm 0.00 in0.0 mm 1.30 in33.0 mm
11:00 PM 59.3°F15.2°C 58.7°F14.8°C 98% Calm Calm 3.0 mph4.8 kmh 30.12 in1020.0 mb 0.00 in0.0 mm 0.00 in0.0 mm 1.30 in33.0 mm
11:05 PM 59.3°F15.2°C 58.7°F14.8°C 98% Calm Calm 3.0 mph4.8 kmh 30.12 in1020.0 mb 0.00 in0.0 mm 0.00 in0.0 mm 1.30 in33.0 mm
11:10 PM 59.3°F15.2°C 58.7°F14.8°C 98% 1.1 mph SW1.8 kmh SW 2.0 mph3.2 kmh 30.12 in1020.0 mb 0.00 in0.0 mm 0.00 in0.0 mm 1.30 in33.0 mm
11:15 PM 59.4°F15.2°C 58.8°F14.9°C 98% 1.0 mph SW1.6 kmh SW 2.0 mph3.2 kmh 30.12 in1020.0 mb 0.00 in0.0 mm 0.00 in0.0 mm 1.30 in33.0 mm
11:20 PM 59.3°F15.2°C 58.7°F14.8°C 98% 1.0 mph SW1.6 kmh SW 2.0 mph3.2 kmh 30.12 in1020.0 mb 0.00 in0.0 mm 0.00 in0.0 mm 1.30 in33.0 mm
11:25 PM 59.3°F15.2°C 58.7°F14.8°C 98% 1.0 mph SW1.6 kmh SW 2.0 mph3.2 kmh 30.12 in1020.0 mb 0.00 in0.0 mm 0.00 in0.0 mm 1.30 in33.0 mm
11:30 PM 59.4°F15.2°C 58.8°F14.9°C 98% 1.0 mph WSW1.6 kmh WSW 2.0 mph3.2 kmh 30.11 in1019.6 mb 0.00 in0.0 mm 0.00 in0.0 mm 1.30 in33.0 mm
11:35 PM 59.3°F15.2°C 58.7°F14.8°C 98% Calm Calm 1.0 mph1.6 kmh 30.11 in1019.6 mb 0.00 in0.0 mm 0.00 in0.0 mm 1.30 in33.0 mm
11:40 PM 59.3°F15.2°C 58.7°F14.8°C 98% 1.0 mph WSW1.6 kmh WSW 1.0 mph1.6 kmh 30.11 in1019.6 mb 0.00 in0.0 mm 0.00 in0.0 mm 1.30 in33.0 mm
11:45 PM 59.3°F15.2°C 58.7°F14.8°C 98% 1.0 mph W1.6 kmh W 1.0 mph1.6 kmh 30.11 in1019.6 mb 0.00 in0.0 mm 0.00 in0.0 mm 1.30 in33.0 mm
11:50 PM 59.3°F15.2°C 58.7°F14.8°C 98% 1.0 mph W1.6 kmh W 1.0 mph1.6 kmh 30.11 in1019.6 mb 0.00 in0.0 mm 0.00 in0.0 mm 1.30 in33.0 mm
11:55 PM 59.3°F15.2°C 58.7°F14.8°C 98% 1.0 mph W1.6 kmh W 1.0 mph1.6 kmh 30.11 in1019.6 mb 0.00 in0.0 mm 0.00 in0.0 mm 1.30 in33.0 mm